createdAt,value
2023-11-05T00:01:01.885Z,7.60
2023-11-05T00:03:32.854Z,7.57
2023-11-05T00:06:03.561Z,7.54
2023-11-05T00:08:34.281Z,7.43
2023-11-05T00:11:04.775Z,7.33
2023-11-05T00:13:38.421Z,7.27
2023-11-05T00:16:10.101Z,7.28
2023-11-05T00:18:40.991Z,7.21
2023-11-05T00:21:11.781Z,7.25
2023-11-05T00:23:42.286Z,7.15
2023-11-05T00:26:12.856Z,7.02
2023-11-05T00:28:49.405Z,6.97
2023-11-05T00:31:19.991Z,6.97
2023-11-05T00:33:50.644Z,7.01
2023-11-05T00:36:22.075Z,7.00
2023-11-05T00:38:56.384Z,6.91
2023-11-05T00:41:27.271Z,6.85
2023-11-05T00:44:00.347Z,6.67
2023-11-05T00:46:30.902Z,6.59
2023-11-05T00:49:01.513Z,6.60
2023-11-05T00:51:32.185Z,6.53
2023-11-05T00:54:02.716Z,6.48
2023-11-05T00:56:33.418Z,6.47
2023-11-05T00:59:07.030Z,6.35
2023-11-05T01:01:37.651Z,6.31
2023-11-05T01:04:08.855Z,6.25
2023-11-05T01:06:39.538Z,6.23
2023-11-05T01:09:10.616Z,6.14
2023-11-05T01:11:42.901Z,6.18
2023-11-05T01:14:16.276Z,6.24
2023-11-05T01:16:47.094Z,6.21
2023-11-05T01:19:17.703Z,6.23
2023-11-05T01:21:48.438Z,6.31
2023-11-05T01:24:18.978Z,6.27
2023-11-05T01:26:49.674Z,6.18
2023-11-05T01:29:22.868Z,6.22
2023-11-05T01:31:53.738Z,6.22
2023-11-05T01:34:24.414Z,6.22
2023-11-05T01:36:55.186Z,6.22
2023-11-05T01:39:26.717Z,6.37
2023-11-05T01:41:57.316Z,6.46
2023-11-05T01:44:30.448Z,6.52
2023-11-05T01:47:01.828Z,6.55
2023-11-05T01:49:32.567Z,6.58
2023-11-05T01:52:03.921Z,6.65
2023-11-05T01:54:34.956Z,6.63
2023-11-05T01:57:05.835Z,6.65
2023-11-05T01:59:39.152Z,6.62
2023-11-05T02:02:11.667Z,6.76
2023-11-05T02:04:43.364Z,6.82
2023-11-05T02:07:14.175Z,6.78
2023-11-05T02:09:46.043Z,6.75
2023-11-05T02:12:16.802Z,6.77
2023-11-05T02:14:57.762Z,6.76
2023-11-05T02:17:28.431Z,6.76
2023-11-05T02:20:00.206Z,6.70
2023-11-05T02:22:33.476Z,6.68
2023-11-05T02:25:06.966Z,6.63
2023-11-05T02:27:37.900Z,6.61
2023-11-05T02:30:09.833Z,6.63
2023-11-05T02:32:40.534Z,6.70
2023-11-05T02:35:11.729Z,6.75
2023-11-05T02:37:42.440Z,6.82
2023-11-05T02:40:16.436Z,6.83
2023-11-05T02:42:47.304Z,6.81
2023-11-05T02:45:17.884Z,6.77
2023-11-05T02:47:48.616Z,6.71
2023-11-05T02:50:19.639Z,6.61
2023-11-05T02:52:50.329Z,6.45
2023-11-05T02:55:23.507Z,6.39
2023-11-05T02:57:54.241Z,6.27
2023-11-05T03:00:29.490Z,6.24
2023-11-05T03:03:00.725Z,6.19
2023-11-05T03:05:31.329Z,6.17
2023-11-05T03:08:01.839Z,6.16
2023-11-05T03:10:34.987Z,6.13
2023-11-05T03:13:05.571Z,6.12
2023-11-05T03:15:36.115Z,6.18
2023-11-05T03:18:06.744Z,6.42
2023-11-05T03:20:34.833Z,6.51
2023-11-05T03:23:05.371Z,6.59
2023-11-05T03:25:39.706Z,6.69
2023-11-05T03:28:10.299Z,6.93
2023-11-05T03:30:41.127Z,7.30
2023-11-05T03:33:11.837Z,7.38
2023-11-05T03:35:42.481Z,7.58
2023-11-05T03:38:13.000Z,7.99
2023-11-05T03:40:46.173Z,8.12
2023-11-05T03:43:16.816Z,8.50
2023-11-05T03:45:47.405Z,8.47
2023-11-05T03:48:17.984Z,8.46
2023-11-05T03:50:48.556Z,8.42
2023-11-05T03:53:19.130Z,8.78
2023-11-05T03:55:52.474Z,8.84
2023-11-05T03:58:23.153Z,9.05
2023-11-05T04:00:54.135Z,9.11
2023-11-05T04:03:25.059Z,9.27
2023-11-05T04:05:57.288Z,9.47
2023-11-05T04:08:27.816Z,9.49
2023-11-05T04:11:00.972Z,9.49
2023-11-05T04:13:31.611Z,9.39
2023-11-05T04:16:02.278Z,9.24
2023-11-05T04:18:32.817Z,9.26
2023-11-05T04:21:03.378Z,9.28
2023-11-05T04:23:33.953Z,9.40
2023-11-05T04:26:07.898Z,9.42
2023-11-05T04:28:38.540Z,9.44
2023-11-05T04:31:09.447Z,9.66
2023-11-05T04:33:40.123Z,9.67
2023-11-05T04:36:11.347Z,9.62
2023-11-05T04:38:43.274Z,9.63
2023-11-05T04:41:16.522Z,9.81
2023-11-05T04:43:47.505Z,10.06
2023-11-05T04:46:18.114Z,10.11
2023-11-05T04:48:48.757Z,10.17
2023-11-05T04:51:19.328Z,10.15
2023-11-05T04:53:49.862Z,10.37
2023-11-05T04:56:23.044Z,10.50
2023-11-05T04:58:53.929Z,10.46
2023-11-05T05:01:24.562Z,10.49
2023-11-05T05:03:55.334Z,10.61
2023-11-05T05:06:25.922Z,10.57
2023-11-05T05:08:56.428Z,10.51
2023-11-05T05:11:29.533Z,10.23
2023-11-05T05:14:00.075Z,10.21
2023-11-05T05:16:31.172Z,10.10
2023-11-05T05:19:02.316Z,9.85
2023-11-05T05:21:32.823Z,9.72
2023-11-05T05:24:03.373Z,9.71
2023-11-05T05:26:36.447Z,9.72
2023-11-05T05:29:07.128Z,9.82
2023-11-05T05:31:38.091Z,9.88
2023-11-05T05:34:09.668Z,9.95
2023-11-05T05:36:43.976Z,10.05
2023-11-05T05:39:14.529Z,10.07
2023-11-05T05:41:47.688Z,10.11
2023-11-05T05:44:20.889Z,10.11
2023-11-05T05:46:52.912Z,9.99
2023-11-05T05:49:23.771Z,9.94
2023-11-05T05:51:54.380Z,9.71
2023-11-05T05:54:25.264Z,9.55
2023-11-05T05:56:58.357Z,9.60
2023-11-05T05:59:29.107Z,9.68
2023-11-05T06:02:00.579Z,9.68
2023-11-05T06:04:31.291Z,9.52
2023-11-05T06:07:01.944Z,9.44
2023-11-05T06:09:32.504Z,9.44
2023-11-05T06:12:05.654Z,9.22
2023-11-05T06:14:41.352Z,9.07
2023-11-05T06:17:17.564Z,9.12
2023-11-05T06:19:48.181Z,9.25
2023-11-05T06:22:18.814Z,9.38
2023-11-05T06:24:49.407Z,9.43
2023-11-05T06:27:22.505Z,9.54
2023-11-05T06:29:56.967Z,9.39
2023-11-05T06:32:27.636Z,9.29
2023-11-05T06:35:00.187Z,9.46
2023-11-05T06:37:32.401Z,9.36
2023-11-05T06:40:03.526Z,9.31
2023-11-05T06:42:36.639Z,9.30
2023-11-05T06:45:08.068Z,9.29
2023-11-05T06:47:38.756Z,9.47
2023-11-05T06:50:10.115Z,9.76
2023-11-05T06:52:41.543Z,9.98
2023-11-05T06:55:13.065Z,10.26
2023-11-05T06:57:46.622Z,10.42
2023-11-05T07:00:18.371Z,10.41
2023-11-05T07:02:49.001Z,10.48
2023-11-05T07:05:19.750Z,10.50
2023-11-05T07:07:52.221Z,10.34
2023-11-05T07:10:23.176Z,10.21
2023-11-05T07:12:56.271Z,10.23
2023-11-05T07:15:27.266Z,10.26
2023-11-05T07:17:59.270Z,10.35
2023-11-05T07:20:30.441Z,10.29
2023-11-05T07:23:00.996Z,10.52
2023-11-05T07:25:31.806Z,10.52
2023-11-05T07:28:05.034Z,10.60
2023-11-05T07:30:35.955Z,10.47
2023-11-05T07:33:06.941Z,10.38
2023-11-05T07:35:37.576Z,10.38
2023-11-05T07:38:09.461Z,10.46
2023-11-05T07:40:40.169Z,10.44
2023-11-05T07:43:13.384Z,10.59
2023-11-05T07:45:44.208Z,10.42
2023-11-05T07:48:14.875Z,10.45
2023-11-05T07:50:47.195Z,10.42
2023-11-05T07:53:18.072Z,10.80
2023-11-05T07:55:49.059Z,11.05
2023-11-05T07:58:22.180Z,11.05
2023-11-05T08:00:52.678Z,11.32
2023-11-05T08:03:24.086Z,11.44
2023-11-05T08:05:54.658Z,11.42
2023-11-05T08:08:25.191Z,11.54
2023-11-05T08:10:55.785Z,11.46
2023-11-05T08:13:29.112Z,11.63
2023-11-05T08:15:59.768Z,11.99
2023-11-05T08:18:30.417Z,12.40
2023-11-05T08:21:01.011Z,12.63
2023-11-05T08:23:31.563Z,12.58
2023-11-05T08:26:03.240Z,12.80
2023-11-05T08:28:36.443Z,12.62
2023-11-05T08:31:11.274Z,12.59
2023-11-05T08:33:42.078Z,12.86
2023-11-05T08:36:13.241Z,12.62
2023-11-05T08:38:43.746Z,12.18
2023-11-05T08:41:14.265Z,11.95
2023-11-05T08:43:47.687Z,11.85
2023-11-05T08:46:18.282Z,11.59
2023-11-05T08:48:49.072Z,11.60
2023-11-05T08:51:28.655Z,11.71
2023-11-05T08:54:00.318Z,11.78
2023-11-05T08:56:31.233Z,11.99
2023-11-05T08:59:06.041Z,11.92
2023-11-05T09:01:36.593Z,11.93
2023-11-05T09:04:10.491Z,12.01
2023-11-05T09:06:41.122Z,11.80
2023-11-05T09:09:12.385Z,11.87
2023-11-05T09:11:42.954Z,11.98
2023-11-05T09:14:16.557Z,12.16
2023-11-05T09:16:47.168Z,12.25
2023-11-05T09:19:17.893Z,12.52
2023-11-05T09:21:48.509Z,12.81
2023-11-05T09:24:19.035Z,12.91
2023-11-05T09:26:49.671Z,12.69
2023-11-05T09:29:22.917Z,12.35
2023-11-05T09:31:53.829Z,12.26
2023-11-05T09:34:24.497Z,12.42
2023-11-05T09:36:55.040Z,12.61
2023-11-05T09:39:25.672Z,12.62
2023-11-05T09:41:56.205Z,12.60
2023-11-05T09:44:29.422Z,12.88
2023-11-05T09:47:02.804Z,13.20
2023-11-05T09:49:34.634Z,13.18
2023-11-05T09:52:07.712Z,13.13
2023-11-05T09:54:41.632Z,12.40
2023-11-05T09:57:12.206Z,12.26
2023-11-05T09:59:51.210Z,12.58
2023-11-05T10:02:21.755Z,12.89
2023-11-05T10:04:52.376Z,13.21
2023-11-05T10:07:23.241Z,13.65
2023-11-05T10:09:54.150Z,13.98
2023-11-05T10:12:28.462Z,14.00
2023-11-05T10:15:02.373Z,12.94
2023-11-05T10:17:32.939Z,12.39
2023-11-05T10:20:03.935Z,11.95
2023-11-05T10:22:34.876Z,12.14
2023-11-05T10:25:07.623Z,12.29
2023-11-05T10:27:39.278Z,12.11
2023-11-05T10:30:16.382Z,12.10
2023-11-05T10:32:48.820Z,11.92
2023-11-05T10:35:22.523Z,12.06
2023-11-05T10:37:54.058Z,12.47
2023-11-05T10:40:25.475Z,12.77
2023-11-05T10:42:56.348Z,13.32
2023-11-05T10:45:30.379Z,13.24
2023-11-05T10:48:00.956Z,13.08
2023-11-05T10:50:33.548Z,13.74
2023-11-05T10:53:07.610Z,13.70
2023-11-05T10:55:40.054Z,13.60
2023-11-05T10:58:18.696Z,13.76
2023-11-05T11:01:05.101Z,13.17
2023-11-05T11:03:36.132Z,13.34
2023-11-05T11:06:08.655Z,12.98
2023-11-05T11:08:39.622Z,12.83
2023-11-05T11:11:17.026Z,13.08
2023-11-05T11:13:59.433Z,13.47
2023-11-05T11:16:35.331Z,13.81
2023-11-05T11:19:13.929Z,13.78
2023-11-05T11:21:49.666Z,13.83
2023-11-05T11:24:40.995Z,13.85
2023-11-05T11:27:12.962Z,13.44
2023-11-05T11:29:46.735Z,12.75
2023-11-05T11:32:20.679Z,12.57
2023-11-05T11:34:51.355Z,12.87
2023-11-05T11:37:22.149Z,13.24
2023-11-05T11:39:52.747Z,13.57
2023-11-05T11:42:23.354Z,14.43
2023-11-05T11:44:54.062Z,14.89
2023-11-05T11:47:31.146Z,14.95
2023-11-05T11:50:09.193Z,14.80
2023-11-05T11:52:50.016Z,14.60
2023-11-05T11:55:22.352Z,14.62
2023-11-05T11:57:53.832Z,14.37
2023-11-05T12:00:24.915Z,14.60
2023-11-05T12:02:58.212Z,14.75
2023-11-05T12:05:28.855Z,14.39
2023-11-05T12:07:59.415Z,13.53
2023-11-05T12:10:29.992Z,13.41
2023-11-05T12:13:03.764Z,13.08
2023-11-05T12:15:34.487Z,13.35
2023-11-05T12:18:08.723Z,13.12
2023-11-05T12:20:39.392Z,13.50
2023-11-05T12:23:10.036Z,13.30
2023-11-05T12:25:41.422Z,13.35
2023-11-05T12:28:13.280Z,13.24
2023-11-05T12:30:45.473Z,12.90
2023-11-05T12:33:18.635Z,12.38
2023-11-05T12:35:49.306Z,12.02
2023-11-05T12:38:20.027Z,11.69
2023-11-05T12:40:50.738Z,11.47
2023-11-05T12:43:23.208Z,11.26
2023-11-05T12:45:57.023Z,11.21
2023-11-05T12:48:33.241Z,11.50
2023-11-05T12:51:05.994Z,11.79
2023-11-05T12:53:36.666Z,11.81
2023-11-05T12:56:10.131Z,11.84
2023-11-05T12:58:42.113Z,11.93
2023-11-05T13:01:14.378Z,12.01
2023-11-05T13:03:47.755Z,11.87
2023-11-05T13:06:18.481Z,11.81
2023-11-05T13:08:49.016Z,11.46
2023-11-05T13:11:22.345Z,11.63
2023-11-05T13:13:53.017Z,11.97
2023-11-05T13:16:23.981Z,12.45
2023-11-05T13:18:57.338Z,12.88
2023-11-05T13:21:29.790Z,12.97
2023-11-05T13:24:01.481Z,12.63
2023-11-05T13:26:32.001Z,12.70
2023-11-05T13:29:02.742Z,12.47
2023-11-05T13:31:33.290Z,12.23
2023-11-05T13:34:06.665Z,12.13
2023-11-05T13:36:37.328Z,12.30
2023-11-05T13:39:12.641Z,12.16
2023-11-05T13:41:43.291Z,11.95
2023-11-05T13:44:13.811Z,11.89
2023-11-05T13:46:44.460Z,11.90
2023-11-05T13:49:19.631Z,11.67
2023-11-05T13:51:50.551Z,11.40
2023-11-05T13:54:21.188Z,11.24
2023-11-05T13:56:52.293Z,11.07
2023-11-05T13:59:24.020Z,10.99
2023-11-05T14:01:54.770Z,11.10
2023-11-05T14:04:28.299Z,11.02
2023-11-05T14:06:58.987Z,10.85
2023-11-05T14:09:32.135Z,10.71
2023-11-05T14:12:03.698Z,10.72
2023-11-05T14:14:36.370Z,10.77
2023-11-05T14:17:07.956Z,10.65
2023-11-05T14:19:41.134Z,10.52
2023-11-05T14:22:11.825Z,10.39
2023-11-05T14:24:42.355Z,10.35
2023-11-05T14:27:14.011Z,10.24
2023-11-05T14:29:44.617Z,10.16
2023-11-05T14:32:15.800Z,10.12
2023-11-05T14:34:49.774Z,10.11
2023-11-05T14:37:20.491Z,10.07
2023-11-05T14:39:52.178Z,10.09
2023-11-05T14:42:22.782Z,10.06
2023-11-05T14:44:53.363Z,9.96
2023-11-05T14:47:24.279Z,10.01
2023-11-05T14:49:57.463Z,10.04
2023-11-05T14:52:28.714Z,10.03
2023-11-05T14:54:59.561Z,9.90
2023-11-05T14:57:30.096Z,9.89
2023-11-05T15:00:00.648Z,9.92
2023-11-05T15:02:31.230Z,9.93
2023-11-05T15:05:04.694Z,9.98
2023-11-05T15:07:35.402Z,9.92
2023-11-05T15:10:06.238Z,9.85
2023-11-05T15:12:37.354Z,9.88
2023-11-05T15:15:08.789Z,9.89
2023-11-05T15:17:39.895Z,9.76
2023-11-05T15:20:14.134Z,9.65
2023-11-05T15:22:44.855Z,9.58
2023-11-05T15:25:17.111Z,9.56
2023-11-05T15:27:47.885Z,9.55
2023-11-05T15:30:18.688Z,9.40
2023-11-05T15:32:53.761Z,9.34
2023-11-05T15:35:26.926Z,9.35
2023-11-05T15:37:57.548Z,9.39
2023-11-05T15:40:29.114Z,9.39
2023-11-05T15:43:01.091Z,9.34
2023-11-05T15:45:32.678Z,9.36
2023-11-05T15:48:03.344Z,9.38
2023-11-05T15:50:36.562Z,9.39
2023-11-05T15:53:07.322Z,9.34
2023-11-05T15:55:38.093Z,9.32
2023-11-05T15:58:08.657Z,9.30
2023-11-05T16:00:39.341Z,9.32
2023-11-05T16:03:10.369Z,9.34
2023-11-05T16:05:44.066Z,9.26
2023-11-05T16:08:14.913Z,9.29
2023-11-05T16:10:46.500Z,9.24
2023-11-05T16:13:18.844Z,9.18
2023-11-05T16:15:52.572Z,9.21
2023-11-05T16:18:23.336Z,9.19
2023-11-05T16:20:56.544Z,9.16
2023-11-05T16:23:27.178Z,9.10
2023-11-05T16:25:57.938Z,9.09
2023-11-05T16:28:29.342Z,9.10
2023-11-05T16:31:01.478Z,9.13
2023-11-05T16:33:32.236Z,9.05
2023-11-05T16:36:05.574Z,9.05
2023-11-05T16:38:36.169Z,9.10
2023-11-05T16:41:07.089Z,9.16
2023-11-05T16:43:37.694Z,9.14
2023-11-05T16:46:08.530Z,9.14
2023-11-05T16:48:39.255Z,9.09
2023-11-05T16:51:12.404Z,9.13
2023-11-05T16:53:42.940Z,9.03
2023-11-05T16:56:13.578Z,9.02
2023-11-05T16:58:44.211Z,9.04
2023-11-05T17:01:18.930Z,9.00
2023-11-05T17:03:49.917Z,9.00
2023-11-05T17:06:23.239Z,9.05
2023-11-05T17:08:53.779Z,9.01
2023-11-05T17:11:24.372Z,9.01
2023-11-05T17:13:55.007Z,8.84
2023-11-05T17:16:25.765Z,8.72
2023-11-05T17:18:58.918Z,8.60
2023-11-05T17:21:32.142Z,8.43
2023-11-05T17:24:02.962Z,8.36
2023-11-05T17:26:33.986Z,8.29
2023-11-05T17:29:04.824Z,8.37
2023-11-05T17:31:36.299Z,8.46
2023-11-05T17:34:07.704Z,8.52
2023-11-05T17:36:41.159Z,8.46
2023-11-05T17:39:12.045Z,8.37
2023-11-05T17:41:42.632Z,8.30
2023-11-05T17:44:13.209Z,8.14
2023-11-05T17:46:44.836Z,8.05
2023-11-05T17:49:15.444Z,7.89
2023-11-05T17:51:48.623Z,7.81
2023-11-05T17:54:19.817Z,7.92
2023-11-05T17:56:50.431Z,8.02
2023-11-05T17:59:21.258Z,8.15
2023-11-05T18:01:51.926Z,8.25
2023-11-05T18:04:22.886Z,8.32
2023-11-05T18:06:56.181Z,8.41
2023-11-05T18:09:27.078Z,8.42
2023-11-05T18:11:57.774Z,8.45
2023-11-05T18:14:28.347Z,8.49
2023-11-05T18:16:59.004Z,8.53
2023-11-05T18:19:29.576Z,8.55
2023-11-05T18:22:03.328Z,8.62
2023-11-05T18:24:34.717Z,8.62
2023-11-05T18:27:05.385Z,8.55
2023-11-05T18:29:36.084Z,8.54
2023-11-05T18:32:07.461Z,8.51
2023-11-05T18:34:38.163Z,8.51
2023-11-05T18:37:11.359Z,8.43
2023-11-05T18:39:42.027Z,8.44
2023-11-05T18:42:12.976Z,8.42
2023-11-05T18:44:46.015Z,8.45
2023-11-05T18:47:16.716Z,8.44
2023-11-05T18:49:47.501Z,8.41
2023-11-05T18:52:20.731Z,8.38
2023-11-05T18:54:52.062Z,8.35
2023-11-05T18:57:22.824Z,8.23
2023-11-05T18:59:53.364Z,8.11
2023-11-05T19:02:24.998Z,7.91
2023-11-05T19:04:55.750Z,7.79
2023-11-05T19:07:29.321Z,7.61
2023-11-05T19:10:00.000Z,7.44
2023-11-05T19:12:30.749Z,7.24
2023-11-05T19:15:01.325Z,7.19
2023-11-05T19:17:32.111Z,7.24
2023-11-05T19:20:02.794Z,7.22
2023-11-05T19:22:35.936Z,7.12
2023-11-05T19:25:06.796Z,7.03
2023-11-05T19:27:37.513Z,6.93
2023-11-05T19:30:11.288Z,6.91
2023-11-05T19:32:42.635Z,6.85
2023-11-05T19:35:13.814Z,6.72
2023-11-05T19:37:47.294Z,6.69
2023-11-05T19:40:18.091Z,6.58
2023-11-05T19:42:49.018Z,6.45
2023-11-05T19:45:20.065Z,6.42
2023-11-05T19:47:51.189Z,6.40
2023-11-05T19:50:22.159Z,6.31
2023-11-05T19:52:55.485Z,6.24
2023-11-05T19:55:28.370Z,6.15
2023-11-05T19:58:04.393Z,6.09
2023-11-05T20:00:36.203Z,6.14
2023-11-05T20:03:06.848Z,6.12
2023-11-05T20:05:37.536Z,6.15
2023-11-05T20:08:10.892Z,6.14
2023-11-05T20:10:41.528Z,5.97
2023-11-05T20:13:12.279Z,5.96
2023-11-05T20:15:43.021Z,6.01
2023-11-05T20:18:13.774Z,6.16
2023-11-05T20:20:44.429Z,6.39
2023-11-05T20:23:17.711Z,6.58
2023-11-05T20:25:48.556Z,6.66
2023-11-05T20:28:19.302Z,6.70
2023-11-05T20:30:53.047Z,6.72
2023-11-05T20:33:23.673Z,6.78
2023-11-05T20:35:54.599Z,6.75
2023-11-05T20:38:27.834Z,6.71
2023-11-05T20:40:58.597Z,6.66
2023-11-05T20:43:29.223Z,6.67
2023-11-05T20:45:59.806Z,6.63
2023-11-05T20:48:30.497Z,6.69
2023-11-05T20:51:02.529Z,6.72
2023-11-05T20:53:35.703Z,6.68
2023-11-05T20:56:06.617Z,6.66
2023-11-05T20:58:37.471Z,6.69
2023-11-05T21:01:08.360Z,6.71
2023-11-05T21:03:39.106Z,6.76
2023-11-05T21:06:12.233Z,6.77
2023-11-05T21:08:45.500Z,6.75
2023-11-05T21:11:16.624Z,6.77
2023-11-05T21:13:47.199Z,6.75
2023-11-05T21:16:17.969Z,6.65
2023-11-05T21:18:48.696Z,6.56
2023-11-05T21:21:19.371Z,6.51
2023-11-05T21:23:52.501Z,6.49
2023-11-05T21:26:23.549Z,6.56
2023-11-05T21:28:54.126Z,6.48
2023-11-05T21:31:24.668Z,6.45
2023-11-05T21:33:55.480Z,6.42
2023-11-05T21:36:26.267Z,6.49
2023-11-05T21:38:59.446Z,6.58
2023-11-05T21:41:27.475Z,6.62
2023-11-05T21:43:58.106Z,6.68
2023-11-05T21:46:30.418Z,6.66
2023-11-05T21:49:00.989Z,6.63
2023-11-05T21:51:31.602Z,6.64
2023-11-05T21:54:05.310Z,6.66
2023-11-05T21:56:35.956Z,6.64
2023-11-05T21:59:06.628Z,6.62
2023-11-05T22:01:37.231Z,6.61
2023-11-05T22:04:08.499Z,6.48
2023-11-05T22:06:39.172Z,6.38
2023-11-05T22:09:12.374Z,6.28
2023-11-05T22:11:43.068Z,6.18
2023-11-05T22:14:13.986Z,6.18
2023-11-05T22:16:46.142Z,6.09
2023-11-05T22:19:17.250Z,6.09
2023-11-05T22:21:48.521Z,6.16
2023-11-05T22:24:23.079Z,6.26
2023-11-05T22:26:53.609Z,6.23
2023-11-05T22:29:24.193Z,6.21
2023-11-05T22:31:55.246Z,6.39
2023-11-05T22:34:25.871Z,6.48
2023-11-05T22:36:56.416Z,6.65
2023-11-05T22:39:29.661Z,6.76
2023-11-05T22:42:00.348Z,6.88
2023-11-05T22:44:31.237Z,7.02
2023-11-05T22:47:02.059Z,7.07
2023-11-05T22:49:32.714Z,7.17
2023-11-05T22:52:03.254Z,7.29
2023-11-05T22:54:36.568Z,7.36
2023-11-05T22:57:07.673Z,7.42
2023-11-05T22:59:38.293Z,7.45
2023-11-05T23:02:08.898Z,7.51
2023-11-05T23:04:39.930Z,7.57
2023-11-05T23:07:10.571Z,7.54
2023-11-05T23:10:00.233Z,7.67
2023-11-05T23:12:30.840Z,7.73
2023-11-05T23:15:01.664Z,7.72
2023-11-05T23:17:32.312Z,7.73
2023-11-05T23:20:03.000Z,7.65
2023-11-05T23:22:33.759Z,7.66
2023-11-05T23:25:07.394Z,7.75
2023-11-05T23:27:38.337Z,7.74
2023-11-05T23:30:10.438Z,7.81
2023-11-05T23:32:41.132Z,7.79
2023-11-05T23:35:12.114Z,7.76
2023-11-05T23:37:42.786Z,7.66
2023-11-05T23:40:16.311Z,7.53
2023-11-05T23:42:46.866Z,7.49
2023-11-05T23:45:17.657Z,7.43
2023-11-05T23:47:49.218Z,7.31
2023-11-05T23:50:20.889Z,7.23
2023-11-05T23:52:51.559Z,7.19
2023-11-05T23:55:25.970Z,7.11
2023-11-05T23:57:57.005Z,7.03
